Kankakee, Illinois
Current Conditions -  °F | °C
As of 7:35 AM on Saturday 20 Dec 2014 (Local Time) from KIKK Reporting Station
Haze Haze  
Wind Chill: -2°   Ceiling: 2900
Heat Index: -2°   Visibility: 4mi
Dew Point: -3°   Wind: 0mph
Humidity: 93%   Direction: NA
Pressure: 30.29"   Gusts: NA
Location:  41.12°N, 87.86°W
Report Text: KIKK 201335Z AUTO 00000KT 4SM BR OVC029 M02/M03 A3029 RMK AO2 T10171027
Loading
Personal Weather Stations






























Interactive Weather Map New forecast layout! Learn more

10-Day Weather Forecast

Advertisements
Track Severe Weather on mobile